sensor_id;sensor_type;location;lat;lon;timestamp;P1;durP1;ratioP1;P2;durP2;ratioP2
55655;SDS011;41530;52.382;5.270;2023-05-10T00:00:23;2.53;;;2.00;;
55655;SDS011;41530;52.382;5.270;2023-05-10T00:02:50;2.67;;;1.85;;
55655;SDS011;41530;52.382;5.270;2023-05-10T00:05:17;2.92;;;2.10;;
55655;SDS011;41530;52.382;5.270;2023-05-10T00:07:43;3.13;;;2.15;;
55655;SDS011;41530;52.382;5.270;2023-05-10T00:10:13;3.65;;;2.33;;
55655;SDS011;41530;52.382;5.270;2023-05-10T00:12:41;3.63;;;2.35;;
55655;SDS011;41530;52.382;5.270;2023-05-10T00:15:08;2.05;;;1.85;;
55655;SDS011;41530;52.382;5.270;2023-05-10T00:17:35;2.67;;;2.25;;
55655;SDS011;41530;52.382;5.270;2023-05-10T00:20:02;4.05;;;2.50;;
55655;SDS011;41530;52.382;5.270;2023-05-10T00:22:31;2.10;;;1.88;;
55655;SDS011;41530;52.382;5.270;2023-05-10T00:24:58;3.55;;;2.75;;
55655;SDS011;41530;52.382;5.270;2023-05-10T00:27:25;2.75;;;1.70;;
55655;SDS011;41530;52.382;5.270;2023-05-10T00:29:51;3.17;;;1.83;;
55655;SDS011;41530;52.382;5.270;2023-05-10T00:32:18;2.38;;;1.80;;
55655;SDS011;41530;52.382;5.270;2023-05-10T00:34:44;3.08;;;1.90;;
55655;SDS011;41530;52.382;5.270;2023-05-10T00:37:11;3.67;;;1.70;;
55655;SDS011;41530;52.382;5.270;2023-05-10T00:39:38;2.47;;;2.08;;
55655;SDS011;41530;52.382;5.270;2023-05-10T00:42:04;6.15;;;2.03;;
55655;SDS011;41530;52.382;5.270;2023-05-10T00:44:31;1.92;;;1.73;;
55655;SDS011;41530;52.382;5.270;2023-05-10T00:46:57;2.20;;;1.80;;
55655;SDS011;41530;52.382;5.270;2023-05-10T00:49:25;4.28;;;2.25;;
55655;SDS011;41530;52.382;5.270;2023-05-10T00:51:52;2.03;;;1.60;;
55655;SDS011;41530;52.382;5.270;2023-05-10T00:54:19;3.35;;;2.50;;
55655;SDS011;41530;52.382;5.270;2023-05-10T00:56:46;4.07;;;2.95;;
55655;SDS011;41530;52.382;5.270;2023-05-10T00:59:15;4.45;;;3.17;;
55655;SDS011;41530;52.382;5.270;2023-05-10T01:01:46;5.15;;;3.50;;
55655;SDS011;41530;52.382;5.270;2023-05-10T01:04:14;6.68;;;4.45;;
55655;SDS011;41530;52.382;5.270;2023-05-10T01:06:41;5.95;;;3.80;;
55655;SDS011;41530;52.382;5.270;2023-05-10T01:09:08;4.07;;;3.05;;
55655;SDS011;41530;52.382;5.270;2023-05-10T01:11:38;4.10;;;3.10;;
55655;SDS011;41530;52.382;5.270;2023-05-10T01:14:06;6.38;;;4.55;;
55655;SDS011;41530;52.382;5.270;2023-05-10T01:16:34;7.28;;;5.13;;
55655;SDS011;41530;52.382;5.270;2023-05-10T01:19:07;7.13;;;5.68;;
55655;SDS011;41530;52.382;5.270;2023-05-10T01:21:53;6.50;;;4.68;;
55655;SDS011;41530;52.382;5.270;2023-05-10T01:27:20;9.27;;;6.70;;
55655;SDS011;41530;52.382;5.270;2023-05-10T01:38:29;9.98;;;6.35;;
55655;SDS011;41530;52.382;5.270;2023-05-10T01:47:17;9.73;;;6.72;;
55655;SDS011;41530;52.382;5.270;2023-05-10T01:52:41;7.97;;;5.90;;
55655;SDS011;41530;52.382;5.270;2023-05-10T01:55:24;9.35;;;6.43;;
55655;SDS011;41530;52.382;5.270;2023-05-10T01:58:39;10.80;;;7.18;;
55655;SDS011;41530;52.382;5.270;2023-05-10T02:01:19;12.35;;;8.30;;
55655;SDS011;41530;52.382;5.270;2023-05-10T02:04:02;12.05;;;8.20;;
55655;SDS011;41530;52.382;5.270;2023-05-10T02:06:46;13.73;;;8.65;;
55655;SDS011;41530;52.382;5.270;2023-05-10T02:09:33;12.35;;;8.65;;
55655;SDS011;41530;52.382;5.270;2023-05-10T02:12:23;12.55;;;8.55;;
55655;SDS011;41530;52.382;5.270;2023-05-10T02:14:59;11.10;;;8.10;;
55655;SDS011;41530;52.382;5.270;2023-05-10T02:17:30;10.20;;;8.02;;
55655;SDS011;41530;52.382;5.270;2023-05-10T02:20:23;12.95;;;8.18;;
55655;SDS011;41530;52.382;5.270;2023-05-10T02:23:07;12.02;;;8.45;;
55655;SDS011;41530;52.382;5.270;2023-05-10T02:26:05;12.45;;;8.27;;
55655;SDS011;41530;52.382;5.270;2023-05-10T02:29:06;13.00;;;8.82;;
55655;SDS011;41530;52.382;5.270;2023-05-10T02:32:01;14.02;;;8.98;;
55655;SDS011;41530;52.382;5.270;2023-05-10T02:34:47;12.02;;;8.38;;
55655;SDS011;41530;52.382;5.270;2023-05-10T02:37:24;12.80;;;9.57;;
55655;SDS011;41530;52.382;5.270;2023-05-10T02:40:11;15.68;;;9.70;;
55655;SDS011;41530;52.382;5.270;2023-05-10T02:43:05;13.85;;;9.30;;
55655;SDS011;41530;52.382;5.270;2023-05-10T02:45:59;11.93;;;8.90;;
55655;SDS011;41530;52.382;5.270;2023-05-10T02:48:52;12.25;;;9.07;;
55655;SDS011;41530;52.382;5.270;2023-05-10T02:51:37;12.90;;;9.00;;
55655;SDS011;41530;52.382;5.270;2023-05-10T02:57:17;12.27;;;8.73;;
55655;SDS011;41530;52.382;5.270;2023-05-10T03:00:04;12.52;;;8.75;;
55655;SDS011;41530;52.382;5.270;2023-05-10T03:02:52;14.23;;;8.93;;
55655;SDS011;41530;52.382;5.270;2023-05-10T03:05:32;14.65;;;9.25;;
55655;SDS011;41530;52.382;5.270;2023-05-10T03:08:15;13.52;;;8.90;;
55655;SDS011;41530;52.382;5.270;2023-05-10T03:17:15;15.23;;;10.20;;
55655;SDS011;41530;52.382;5.270;2023-05-10T03:20:11;13.45;;;9.93;;
55655;SDS011;41530;52.382;5.270;2023-05-10T03:23:16;16.73;;;11.10;;
55655;SDS011;41530;52.382;5.270;2023-05-10T03:26:02;15.45;;;9.88;;
55655;SDS011;41530;52.382;5.270;2023-05-10T03:28:58;15.77;;;10.68;;
55655;SDS011;41530;52.382;5.270;2023-05-10T03:32:31;17.42;;;10.75;;
55655;SDS011;41530;52.382;5.270;2023-05-10T03:35:14;18.90;;;12.13;;
55655;SDS011;41530;52.382;5.270;2023-05-10T03:37:46;22.38;;;12.65;;
55655;SDS011;41530;52.382;5.270;2023-05-10T03:40:30;20.52;;;12.23;;
55655;SDS011;41530;52.382;5.270;2023-05-10T03:46:40;18.25;;;11.35;;
55655;SDS011;41530;52.382;5.270;2023-05-10T03:49:15;19.67;;;11.45;;
55655;SDS011;41530;52.382;5.270;2023-05-10T03:51:44;21.13;;;11.52;;
55655;SDS011;41530;52.382;5.270;2023-05-10T03:54:57;17.25;;;10.52;;
55655;SDS011;41530;52.382;5.270;2023-05-10T04:00:35;14.70;;;10.55;;
55655;SDS011;41530;52.382;5.270;2023-05-10T04:03:26;15.90;;;9.82;;
55655;SDS011;41530;52.382;5.270;2023-05-10T04:06:02;13.77;;;9.32;;
55655;SDS011;41530;52.382;5.270;2023-05-10T04:08:51;13.82;;;9.27;;
55655;SDS011;41530;52.382;5.270;2023-05-10T04:11:27;14.70;;;9.50;;
55655;SDS011;41530;52.382;5.270;2023-05-10T04:14:10;15.15;;;9.40;;
55655;SDS011;41530;52.382;5.270;2023-05-10T04:16:39;17.40;;;9.68;;
55655;SDS011;41530;52.382;5.270;2023-05-10T04:19:32;17.60;;;9.63;;
55655;SDS011;41530;52.382;5.270;2023-05-10T04:22:06;19.65;;;11.10;;
55655;SDS011;41530;52.382;5.270;2023-05-10T04:24:45;15.10;;;9.85;;
55655;SDS011;41530;52.382;5.270;2023-05-10T04:27:24;15.13;;;10.05;;
55655;SDS011;41530;52.382;5.270;2023-05-10T04:30:01;18.20;;;10.07;;
55655;SDS011;41530;52.382;5.270;2023-05-10T04:32:52;16.15;;;9.85;;
55655;SDS011;41530;52.382;5.270;2023-05-10T04:35:41;16.20;;;9.75;;
55655;SDS011;41530;52.382;5.270;2023-05-10T04:38:19;17.80;;;9.05;;
55655;SDS011;41530;52.382;5.270;2023-05-10T04:41:35;16.17;;;9.57;;
55655;SDS011;41530;52.382;5.270;2023-05-10T04:44:15;18.45;;;9.38;;
55655;SDS011;41530;52.382;5.270;2023-05-10T04:46:44;17.52;;;9.65;;
55655;SDS011;41530;52.382;5.270;2023-05-10T04:49:24;14.45;;;8.63;;
55655;SDS011;41530;52.382;5.270;2023-05-10T04:52:06;17.48;;;8.40;;
55655;SDS011;41530;52.382;5.270;2023-05-10T04:54:35;13.35;;;8.13;;
55655;SDS011;41530;52.382;5.270;2023-05-10T04:57:20;13.57;;;7.67;;
55655;SDS011;41530;52.382;5.270;2023-05-10T04:59:56;14.52;;;7.28;;
55655;SDS011;41530;52.382;5.270;2023-05-10T05:02:25;13.63;;;7.38;;
55655;SDS011;41530;52.382;5.270;2023-05-10T05:04:57;13.98;;;6.88;;
55655;SDS011;41530;52.382;5.270;2023-05-10T05:07:29;10.55;;;6.68;;
55655;SDS011;41530;52.382;5.270;2023-05-10T05:10:31;11.38;;;6.22;;
55655;SDS011;41530;52.382;5.270;2023-05-10T05:13:12;9.23;;;4.80;;
55655;SDS011;41530;52.382;5.270;2023-05-10T05:16:01;10.40;;;5.30;;
55655;SDS011;41530;52.382;5.270;2023-05-10T05:18:40;9.48;;;5.78;;
55655;SDS011;41530;52.382;5.270;2023-05-10T05:21:21;8.40;;;5.03;;
55655;SDS011;41530;52.382;5.270;2023-05-10T05:23:55;8.40;;;4.72;;
55655;SDS011;41530;52.382;5.270;2023-05-10T05:26:34;9.70;;;4.50;;
55655;SDS011;41530;52.382;5.270;2023-05-10T05:29:20;7.63;;;4.53;;
55655;SDS011;41530;52.382;5.270;2023-05-10T05:31:58;8.60;;;4.13;;
55655;SDS011;41530;52.382;5.270;2023-05-10T05:34:28;6.88;;;4.18;;
55655;SDS011;41530;52.382;5.270;2023-05-10T05:37:12;8.35;;;4.22;;
55655;SDS011;41530;52.382;5.270;2023-05-10T05:39:58;6.57;;;3.95;;
55655;SDS011;41530;52.382;5.270;2023-05-10T05:42:37;7.43;;;4.00;;
55655;SDS011;41530;52.382;5.270;2023-05-10T05:45:20;6.75;;;3.83;;
55655;SDS011;41530;52.382;5.270;2023-05-10T05:47:55;7.05;;;4.07;;
55655;SDS011;41530;52.382;5.270;2023-05-10T05:50:39;5.13;;;3.38;;
55655;SDS011;41530;52.382;5.270;2023-05-10T05:53:12;4.47;;;3.40;;
55655;SDS011;41530;52.382;5.270;2023-05-10T05:59:05;5.40;;;3.10;;
55655;SDS011;41530;52.382;5.270;2023-05-10T06:01:35;4.43;;;3.17;;
55655;SDS011;41530;52.382;5.270;2023-05-10T06:04:11;5.03;;;2.70;;
55655;SDS011;41530;52.382;5.270;2023-05-10T06:10:39;3.80;;;2.75;;
55655;SDS011;41530;52.382;5.270;2023-05-10T06:13:14;5.63;;;2.67;;
55655;SDS011;41530;52.382;5.270;2023-05-10T06:15:46;4.65;;;2.72;;
55655;SDS011;41530;52.382;5.270;2023-05-10T06:18:15;3.83;;;2.50;;
55655;SDS011;41530;52.382;5.270;2023-05-10T06:20:53;5.30;;;2.90;;
55655;SDS011;41530;52.382;5.270;2023-05-10T06:23:42;7.20;;;2.58;;
55655;SDS011;41530;52.382;5.270;2023-05-10T06:26:19;2.80;;;2.05;;
55655;SDS011;41530;52.382;5.270;2023-05-10T06:29:01;3.42;;;2.70;;
55655;SDS011;41530;52.382;5.270;2023-05-10T06:31:47;3.67;;;2.35;;
55655;SDS011;41530;52.382;5.270;2023-05-10T06:34:24;5.43;;;3.05;;
55655;SDS011;41530;52.382;5.270;2023-05-10T06:37:14;6.57;;;3.00;;
55655;SDS011;41530;52.382;5.270;2023-05-10T06:40:03;4.40;;;3.17;;
55655;SDS011;41530;52.382;5.270;2023-05-10T06:42:31;4.88;;;3.00;;
55655;SDS011;41530;52.382;5.270;2023-05-10T06:44:58;5.68;;;3.25;;
55655;SDS011;41530;52.382;5.270;2023-05-10T06:47:24;4.43;;;2.72;;
55655;SDS011;41530;52.382;5.270;2023-05-10T06:49:51;5.30;;;3.33;;
55655;SDS011;41530;52.382;5.270;2023-05-10T06:52:18;4.45;;;3.50;;
55655;SDS011;41530;52.382;5.270;2023-05-10T06:54:44;4.40;;;3.33;;
55655;SDS011;41530;52.382;5.270;2023-05-10T06:57:11;5.57;;;3.55;;
55655;SDS011;41530;52.382;5.270;2023-05-10T06:59:56;5.20;;;3.58;;
55655;SDS011;41530;52.382;5.270;2023-05-10T07:02:23;8.57;;;3.72;;
55655;SDS011;41530;52.382;5.270;2023-05-10T07:04:49;5.55;;;3.65;;
55655;SDS011;41530;52.382;5.270;2023-05-10T07:07:18;4.65;;;3.35;;
55655;SDS011;41530;52.382;5.270;2023-05-10T07:09:45;5.90;;;3.45;;
55655;SDS011;41530;52.382;5.270;2023-05-10T07:12:12;8.13;;;3.70;;
55655;SDS011;41530;52.382;5.270;2023-05-10T07:14:40;3.72;;;3.30;;
55655;SDS011;41530;52.382;5.270;2023-05-10T07:17:08;5.03;;;3.35;;
55655;SDS011;41530;52.382;5.270;2023-05-10T07:19:34;4.38;;;3.47;;
55655;SDS011;41530;52.382;5.270;2023-05-10T07:22:01;4.88;;;3.83;;
55655;SDS011;41530;52.382;5.270;2023-05-10T07:24:28;6.65;;;3.42;;
55655;SDS011;41530;52.382;5.270;2023-05-10T07:26:54;3.72;;;2.90;;
55655;SDS011;41530;52.382;5.270;2023-05-10T07:29:21;4.82;;;3.13;;
55655;SDS011;41530;52.382;5.270;2023-05-10T07:31:47;4.15;;;2.90;;
55655;SDS011;41530;52.382;5.270;2023-05-10T07:34:14;3.60;;;2.88;;
55655;SDS011;41530;52.382;5.270;2023-05-10T07:36:41;3.90;;;2.95;;
55655;SDS011;41530;52.382;5.270;2023-05-10T07:39:07;5.22;;;2.55;;
55655;SDS011;41530;52.382;5.270;2023-05-10T07:41:34;3.55;;;2.15;;
55655;SDS011;41530;52.382;5.270;2023-05-10T07:44:01;3.10;;;2.53;;
55655;SDS011;41530;52.382;5.270;2023-05-10T07:46:27;3.30;;;2.60;;
55655;SDS011;41530;52.382;5.270;2023-05-10T07:48:54;2.60;;;2.40;;
55655;SDS011;41530;52.382;5.270;2023-05-10T07:51:21;3.17;;;2.50;;
55655;SDS011;41530;52.382;5.270;2023-05-10T07:53:48;3.83;;;2.60;;
55655;SDS011;41530;52.382;5.270;2023-05-10T07:58:53;2.13;;;1.83;;
55655;SDS011;41530;52.382;5.270;2023-05-10T08:01:20;2.80;;;2.33;;
55655;SDS011;41530;52.382;5.270;2023-05-10T08:03:47;2.97;;;2.05;;
55655;SDS011;41530;52.382;5.270;2023-05-10T08:06:15;2.55;;;1.92;;
55655;SDS011;41530;52.382;5.270;2023-05-10T08:08:41;3.00;;;1.88;;
55655;SDS011;41530;52.382;5.270;2023-05-10T08:11:08;2.47;;;2.10;;
55655;SDS011;41530;52.382;5.270;2023-05-10T08:13:35;4.13;;;2.35;;
55655;SDS011;41530;52.382;5.270;2023-05-10T08:16:01;2.67;;;2.28;;
55655;SDS011;41530;52.382;5.270;2023-05-10T08:18:28;2.28;;;2.08;;
55655;SDS011;41530;52.382;5.270;2023-05-10T08:20:55;3.50;;;2.42;;
55655;SDS011;41530;52.382;5.270;2023-05-10T08:23:21;3.28;;;2.17;;
55655;SDS011;41530;52.382;5.270;2023-05-10T08:25:48;1.98;;;1.77;;
55655;SDS011;41530;52.382;5.270;2023-05-10T08:28:15;2.80;;;1.88;;
55655;SDS011;41530;52.382;5.270;2023-05-10T08:30:41;3.33;;;2.13;;
55655;SDS011;41530;52.382;5.270;2023-05-10T08:33:08;3.88;;;2.60;;
55655;SDS011;41530;52.382;5.270;2023-05-10T08:35:35;3.10;;;2.28;;
55655;SDS011;41530;52.382;5.270;2023-05-10T08:38:02;4.57;;;2.60;;
55655;SDS011;41530;52.382;5.270;2023-05-10T08:40:28;3.85;;;2.50;;
55655;SDS011;41530;52.382;5.270;2023-05-10T08:42:56;3.38;;;2.40;;
55655;SDS011;41530;52.382;5.270;2023-05-10T08:45:31;3.88;;;2.55;;
55655;SDS011;41530;52.382;5.270;2023-05-10T08:48:01;2.67;;;2.35;;
55655;SDS011;41530;52.382;5.270;2023-05-10T08:50:28;3.20;;;2.45;;
55655;SDS011;41530;52.382;5.270;2023-05-10T08:52:57;3.42;;;2.50;;
55655;SDS011;41530;52.382;5.270;2023-05-10T08:55:26;3.22;;;2.38;;
55655;SDS011;41530;52.382;5.270;2023-05-10T08:57:53;3.80;;;2.50;;
55655;SDS011;41530;52.382;5.270;2023-05-10T09:00:21;2.95;;;2.30;;
55655;SDS011;41530;52.382;5.270;2023-05-10T09:02:49;2.60;;;2.33;;
55655;SDS011;41530;52.382;5.270;2023-05-10T09:05:16;4.35;;;2.50;;
55655;SDS011;41530;52.382;5.270;2023-05-10T09:07:44;3.63;;;2.20;;
55655;SDS011;41530;52.382;5.270;2023-05-10T09:10:11;3.33;;;2.60;;
55655;SDS011;41530;52.382;5.270;2023-05-10T09:12:39;4.50;;;2.83;;
55655;SDS011;41530;52.382;5.270;2023-05-10T09:15:07;4.43;;;2.80;;
55655;SDS011;41530;52.382;5.270;2023-05-10T09:17:35;3.45;;;2.70;;
55655;SDS011;41530;52.382;5.270;2023-05-10T09:20:03;3.80;;;2.65;;
55655;SDS011;41530;52.382;5.270;2023-05-10T09:22:30;4.80;;;3.20;;
55655;SDS011;41530;52.382;5.270;2023-05-10T09:27:31;4.15;;;2.47;;
55655;SDS011;41530;52.382;5.270;2023-05-10T09:29:58;3.67;;;3.00;;
55655;SDS011;41530;52.382;5.270;2023-05-10T09:32:40;6.93;;;3.05;;
55655;SDS011;41530;52.382;5.270;2023-05-10T09:35:11;3.67;;;2.65;;
55655;SDS011;41530;52.382;5.270;2023-05-10T09:37:40;4.88;;;3.10;;
55655;SDS011;41530;52.382;5.270;2023-05-10T09:40:12;6.72;;;2.92;;
55655;SDS011;41530;52.382;5.270;2023-05-10T09:42:42;3.60;;;2.75;;
55655;SDS011;41530;52.382;5.270;2023-05-10T09:45:17;4.90;;;3.00;;
55655;SDS011;41530;52.382;5.270;2023-05-10T09:47:44;4.35;;;3.00;;
55655;SDS011;41530;52.382;5.270;2023-05-10T09:50:12;3.75;;;3.15;;
55655;SDS011;41530;52.382;5.270;2023-05-10T09:52:46;4.30;;;3.42;;
55655;SDS011;41530;52.382;5.270;2023-05-10T09:55:14;5.45;;;3.33;;
55655;SDS011;41530;52.382;5.270;2023-05-10T09:57:42;6.57;;;3.97;;
55655;SDS011;41530;52.382;5.270;2023-05-10T10:00:09;4.05;;;3.50;;
55655;SDS011;41530;52.382;5.270;2023-05-10T10:02:36;4.35;;;3.65;;
55655;SDS011;41530;52.382;5.270;2023-05-10T10:05:03;4.80;;;3.80;;
55655;SDS011;41530;52.382;5.270;2023-05-10T10:07:32;6.45;;;3.75;;
55655;SDS011;41530;52.382;5.270;2023-05-10T10:10:00;5.07;;;4.10;;
55655;SDS011;41530;52.382;5.270;2023-05-10T10:12:26;4.68;;;3.95;;
55655;SDS011;41530;52.382;5.270;2023-05-10T10:14:54;5.72;;;3.90;;
55655;SDS011;41530;52.382;5.270;2023-05-10T10:17:22;5.35;;;3.75;;
55655;SDS011;41530;52.382;5.270;2023-05-10T10:19:54;5.13;;;3.72;;
55655;SDS011;41530;52.382;5.270;2023-05-10T10:22:21;4.95;;;3.60;;
55655;SDS011;41530;52.382;5.270;2023-05-10T10:24:48;5.35;;;3.90;;
55655;SDS011;41530;52.382;5.270;2023-05-10T10:35:42;4.35;;;3.17;;
55655;SDS011;41530;52.382;5.270;2023-05-10T10:38:09;5.25;;;3.80;;
55655;SDS011;41530;52.382;5.270;2023-05-10T10:40:39;3.58;;;3.08;;
55655;SDS011;41530;52.382;5.270;2023-05-10T10:46:12;4.45;;;3.10;;
55655;SDS011;41530;52.382;5.270;2023-05-10T10:48:47;3.70;;;2.67;;
55655;SDS011;41530;52.382;5.270;2023-05-10T10:51:15;3.85;;;2.80;;
55655;SDS011;41530;52.382;5.270;2023-05-10T10:53:43;3.97;;;3.33;;
55655;SDS011;41530;52.382;5.270;2023-05-10T10:56:11;4.15;;;3.03;;
55655;SDS011;41530;52.382;5.270;2023-05-10T10:58:42;4.53;;;2.88;;
55655;SDS011;41530;52.382;5.270;2023-05-10T11:01:20;3.95;;;2.60;;
55655;SDS011;41530;52.382;5.270;2023-05-10T11:06:32;3.53;;;2.78;;
55655;SDS011;41530;52.382;5.270;2023-05-10T11:09:04;3.60;;;2.50;;
55655;SDS011;41530;52.382;5.270;2023-05-10T11:11:34;3.70;;;2.58;;
55655;SDS011;41530;52.382;5.270;2023-05-10T11:14:04;2.92;;;2.42;;
55655;SDS011;41530;52.382;5.270;2023-05-10T11:16:42;4.13;;;2.67;;
55655;SDS011;41530;52.382;5.270;2023-05-10T11:19:11;6.10;;;2.58;;
55655;SDS011;41530;52.382;5.270;2023-05-10T11:21:45;3.47;;;2.47;;
55655;SDS011;41530;52.382;5.270;2023-05-10T11:24:13;3.50;;;2.78;;
55655;SDS011;41530;52.382;5.270;2023-05-10T11:26:45;3.47;;;2.40;;
55655;SDS011;41530;52.382;5.270;2023-05-10T11:29:12;3.80;;;2.65;;
55655;SDS011;41530;52.382;5.270;2023-05-10T11:31:46;3.28;;;2.50;;
55655;SDS011;41530;52.382;5.270;2023-05-10T11:34:26;3.13;;;2.05;;
55655;SDS011;41530;52.382;5.270;2023-05-10T11:36:59;4.78;;;2.08;;
55655;SDS011;41530;52.382;5.270;2023-05-10T11:39:27;2.97;;;2.30;;
55655;SDS011;41530;52.382;5.270;2023-05-10T11:41:54;2.72;;;2.38;;
55655;SDS011;41530;52.382;5.270;2023-05-10T11:44:21;4.82;;;2.20;;
55655;SDS011;41530;52.382;5.270;2023-05-10T11:46:48;3.88;;;2.45;;
55655;SDS011;41530;52.382;5.270;2023-05-10T11:49:15;2.40;;;1.95;;
55655;SDS011;41530;52.382;5.270;2023-05-10T11:51:42;3.65;;;1.92;;
55655;SDS011;41530;52.382;5.270;2023-05-10T11:54:10;2.97;;;2.10;;
55655;SDS011;41530;52.382;5.270;2023-05-10T11:59:24;2.25;;;1.60;;
55655;SDS011;41530;52.382;5.270;2023-05-10T12:01:51;2.58;;;1.88;;
55655;SDS011;41530;52.382;5.270;2023-05-10T12:04:18;2.55;;;1.73;;
55655;SDS011;41530;52.382;5.270;2023-05-10T12:06:45;2.20;;;1.95;;
55655;SDS011;41530;52.382;5.270;2023-05-10T12:09:12;3.45;;;1.90;;
55655;SDS011;41530;52.382;5.270;2023-05-10T12:11:41;3.45;;;2.33;;
55655;SDS011;41530;52.382;5.270;2023-05-10T12:14:09;3.40;;;2.90;;
55655;SDS011;41530;52.382;5.270;2023-05-10T12:16:36;3.45;;;2.53;;
55655;SDS011;41530;52.382;5.270;2023-05-10T12:19:03;3.63;;;2.58;;
55655;SDS011;41530;52.382;5.270;2023-05-10T12:21:30;4.63;;;2.88;;
55655;SDS011;41530;52.382;5.270;2023-05-10T12:24:01;3.08;;;2.40;;
55655;SDS011;41530;52.382;5.270;2023-05-10T12:26:29;3.10;;;2.30;;
55655;SDS011;41530;52.382;5.270;2023-05-10T12:29:11;4.25;;;2.25;;
55655;SDS011;41530;52.382;5.270;2023-05-10T12:31:55;3.22;;;2.70;;
55655;SDS011;41530;52.382;5.270;2023-05-10T12:36:54;2.95;;;2.35;;
55655;SDS011;41530;52.382;5.270;2023-05-10T12:39:21;2.30;;;2.10;;
55655;SDS011;41530;52.382;5.270;2023-05-10T12:41:48;5.05;;;2.33;;
55655;SDS011;41530;52.382;5.270;2023-05-10T12:44:15;3.72;;;2.70;;
55655;SDS011;41530;52.382;5.270;2023-05-10T12:46:42;3.38;;;2.78;;
55655;SDS011;41530;52.382;5.270;2023-05-10T12:49:08;3.67;;;2.10;;
55655;SDS011;41530;52.382;5.270;2023-05-10T12:51:35;4.35;;;2.53;;
55655;SDS011;41530;52.382;5.270;2023-05-10T12:54:02;4.90;;;2.30;;
55655;SDS011;41530;52.382;5.270;2023-05-10T12:56:29;5.47;;;2.97;;
55655;SDS011;41530;52.382;5.270;2023-05-10T12:58:55;6.20;;;2.17;;
55655;SDS011;41530;52.382;5.270;2023-05-10T13:01:22;2.63;;;2.28;;
55655;SDS011;41530;52.382;5.270;2023-05-10T13:03:49;4.43;;;2.10;;
55655;SDS011;41530;52.382;5.270;2023-05-10T13:06:16;2.70;;;1.90;;
55655;SDS011;41530;52.382;5.270;2023-05-10T13:08:43;4.60;;;2.17;;
55655;SDS011;41530;52.382;5.270;2023-05-10T13:11:09;3.58;;;2.38;;
55655;SDS011;41530;52.382;5.270;2023-05-10T13:13:36;4.53;;;1.95;;
55655;SDS011;41530;52.382;5.270;2023-05-10T13:16:03;3.72;;;1.73;;
55655;SDS011;41530;52.382;5.270;2023-05-10T13:18:30;4.57;;;1.77;;
55655;SDS011;41530;52.382;5.270;2023-05-10T13:20:56;3.03;;;1.60;;
55655;SDS011;41530;52.382;5.270;2023-05-10T13:23:23;2.95;;;1.70;;
55655;SDS011;41530;52.382;5.270;2023-05-10T13:25:50;3.42;;;1.75;;
55655;SDS011;41530;52.382;5.270;2023-05-10T13:28:16;1.60;;;1.40;;
55655;SDS011;41530;52.382;5.270;2023-05-10T13:30:43;2.00;;;1.75;;
55655;SDS011;41530;52.382;5.270;2023-05-10T13:33:09;3.42;;;1.95;;
55655;SDS011;41530;52.382;5.270;2023-05-10T13:35:36;1.75;;;1.60;;
55655;SDS011;41530;52.382;5.270;2023-05-10T13:38:03;2.92;;;1.88;;
55655;SDS011;41530;52.382;5.270;2023-05-10T13:40:29;2.58;;;1.90;;
55655;SDS011;41530;52.382;5.270;2023-05-10T13:42:56;2.50;;;1.80;;
55655;SDS011;41530;52.382;5.270;2023-05-10T13:45:23;3.85;;;2.60;;
55655;SDS011;41530;52.382;5.270;2023-05-10T13:47:49;3.80;;;2.42;;
55655;SDS011;41530;52.382;5.270;2023-05-10T13:50:16;4.97;;;2.50;;
55655;SDS011;41530;52.382;5.270;2023-05-10T13:52:43;3.92;;;2.60;;
55655;SDS011;41530;52.382;5.270;2023-05-10T13:55:09;3.85;;;2.00;;
55655;SDS011;41530;52.382;5.270;2023-05-10T13:57:38;3.70;;;2.20;;
55655;SDS011;41530;52.382;5.270;2023-05-10T14:00:05;4.60;;;2.33;;
55655;SDS011;41530;52.382;5.270;2023-05-10T14:02:32;4.88;;;2.80;;
55655;SDS011;41530;52.382;5.270;2023-05-10T14:04:59;4.20;;;2.50;;
55655;SDS011;41530;52.382;5.270;2023-05-10T14:07:26;3.97;;;2.30;;
55655;SDS011;41530;52.382;5.270;2023-05-10T14:09:52;3.90;;;2.17;;
55655;SDS011;41530;52.382;5.270;2023-05-10T14:12:19;4.22;;;2.30;;
55655;SDS011;41530;52.382;5.270;2023-05-10T14:14:45;3.28;;;2.30;;
55655;SDS011;41530;52.382;5.270;2023-05-10T14:17:12;6.70;;;2.40;;
55655;SDS011;41530;52.382;5.270;2023-05-10T14:19:39;3.40;;;1.98;;
55655;SDS011;41530;52.382;5.270;2023-05-10T14:22:05;5.65;;;2.60;;
55655;SDS011;41530;52.382;5.270;2023-05-10T14:24:32;3.00;;;2.28;;
55655;SDS011;41530;52.382;5.270;2023-05-10T14:26:59;3.05;;;2.13;;
55655;SDS011;41530;52.382;5.270;2023-05-10T14:29:26;2.83;;;2.15;;
55655;SDS011;41530;52.382;5.270;2023-05-10T14:31:53;2.25;;;1.98;;
55655;SDS011;41530;52.382;5.270;2023-05-10T14:34:20;3.80;;;2.33;;
55655;SDS011;41530;52.382;5.270;2023-05-10T14:36:46;3.15;;;2.20;;
55655;SDS011;41530;52.382;5.270;2023-05-10T14:39:13;3.45;;;2.30;;
55655;SDS011;41530;52.382;5.270;2023-05-10T14:41:40;3.78;;;2.50;;
55655;SDS011;41530;52.382;5.270;2023-05-10T14:44:10;5.53;;;2.30;;
55655;SDS011;41530;52.382;5.270;2023-05-10T14:46:37;3.88;;;2.20;;
55655;SDS011;41530;52.382;5.270;2023-05-10T14:49:04;3.25;;;2.10;;
55655;SDS011;41530;52.382;5.270;2023-05-10T14:51:31;3.53;;;2.20;;
55655;SDS011;41530;52.382;5.270;2023-05-10T14:53:58;4.05;;;2.35;;
55655;SDS011;41530;52.382;5.270;2023-05-10T14:56:25;3.25;;;2.42;;
55655;SDS011;41530;52.382;5.270;2023-05-10T14:58:52;3.58;;;2.60;;
55655;SDS011;41530;52.382;5.270;2023-05-10T15:01:19;3.78;;;2.63;;
55655;SDS011;41530;52.382;5.270;2023-05-10T15:03:46;5.75;;;3.15;;
55655;SDS011;41530;52.382;5.270;2023-05-10T15:06:13;3.88;;;2.70;;
55655;SDS011;41530;52.382;5.270;2023-05-10T15:08:42;3.85;;;2.40;;
55655;SDS011;41530;52.382;5.270;2023-05-10T15:11:08;3.42;;;2.67;;
55655;SDS011;41530;52.382;5.270;2023-05-10T15:13:35;5.50;;;3.15;;
55655;SDS011;41530;52.382;5.270;2023-05-10T15:16:02;5.68;;;3.10;;
55655;SDS011;41530;52.382;5.270;2023-05-10T15:18:28;4.70;;;3.45;;
55655;SDS011;41530;52.382;5.270;2023-05-10T15:20:55;4.70;;;3.58;;
55655;SDS011;41530;52.382;5.270;2023-05-10T15:23:22;6.10;;;3.30;;
55655;SDS011;41530;52.382;5.270;2023-05-10T15:25:49;6.70;;;3.75;;
55655;SDS011;41530;52.382;5.270;2023-05-10T15:28:18;5.80;;;4.00;;
55655;SDS011;41530;52.382;5.270;2023-05-10T15:30:44;4.88;;;3.90;;
55655;SDS011;41530;52.382;5.270;2023-05-10T15:33:11;5.75;;;3.50;;
55655;SDS011;41530;52.382;5.270;2023-05-10T15:35:37;5.60;;;3.80;;
55655;SDS011;41530;52.382;5.270;2023-05-10T15:38:05;5.32;;;3.53;;
55655;SDS011;41530;52.382;5.270;2023-05-10T15:40:32;5.82;;;3.80;;
55655;SDS011;41530;52.382;5.270;2023-05-10T15:42:58;4.45;;;3.20;;
55655;SDS011;41530;52.382;5.270;2023-05-10T15:45:25;5.07;;;3.13;;
55655;SDS011;41530;52.382;5.270;2023-05-10T15:47:52;5.30;;;3.10;;
55655;SDS011;41530;52.382;5.270;2023-05-10T15:50:19;7.20;;;3.10;;
55655;SDS011;41530;52.382;5.270;2023-05-10T15:52:45;4.80;;;3.00;;
55655;SDS011;41530;52.382;5.270;2023-05-10T15:55:12;3.55;;;2.72;;
55655;SDS011;41530;52.382;5.270;2023-05-10T15:57:39;3.80;;;3.05;;
55655;SDS011;41530;52.382;5.270;2023-05-10T16:00:11;5.45;;;3.10;;
55655;SDS011;41530;52.382;5.270;2023-05-10T16:02:39;4.03;;;2.70;;
55655;SDS011;41530;52.382;5.270;2023-05-10T16:05:06;5.03;;;3.10;;
55655;SDS011;41530;52.382;5.270;2023-05-10T16:07:34;4.18;;;2.92;;
55655;SDS011;41530;52.382;5.270;2023-05-10T16:10:01;4.47;;;3.05;;
55655;SDS011;41530;52.382;5.270;2023-05-10T16:12:29;4.82;;;2.92;;
55655;SDS011;41530;52.382;5.270;2023-05-10T16:14:56;3.72;;;2.72;;
55655;SDS011;41530;52.382;5.270;2023-05-10T16:17:23;4.63;;;2.65;;
55655;SDS011;41530;52.382;5.270;2023-05-10T16:19:50;4.97;;;2.85;;
55655;SDS011;41530;52.382;5.270;2023-05-10T16:22:16;3.95;;;2.80;;